createdAt,value
2023-05-10T00:00:55.497Z,0.00
2023-05-10T00:01:55.838Z,0.00
2023-05-10T00:02:56.168Z,0.00
2023-05-10T00:03:56.380Z,0.00
2023-05-10T00:04:56.539Z,0.00
2023-05-10T00:05:56.897Z,0.00
2023-05-10T00:06:57.126Z,0.00
2023-05-10T00:07:57.474Z,0.00
2023-05-10T00:08:57.729Z,0.00
2023-05-10T00:09:57.993Z,0.00
2023-05-10T00:10:58.292Z,0.00
2023-05-10T00:11:58.611Z,0.00
2023-05-10T00:12:58.912Z,0.00
2023-05-10T00:13:59.140Z,0.00
2023-05-10T00:14:59.495Z,0.00
2023-05-10T00:15:59.815Z,0.00
2023-05-10T00:17:00.182Z,0.00
2023-05-10T00:18:00.389Z,0.00
2023-05-10T00:19:00.584Z,0.00
2023-05-10T00:20:00.857Z,0.00
2023-05-10T00:21:01.172Z,0.00
2023-05-10T00:22:01.463Z,0.00
2023-05-10T00:23:01.840Z,0.00
2023-05-10T00:24:02.139Z,0.00
2023-05-10T00:25:02.476Z,0.00
2023-05-10T00:26:02.760Z,0.00
2023-05-10T00:27:03.022Z,0.00
2023-05-10T00:28:03.348Z,0.00
2023-05-10T00:29:03.637Z,0.00
2023-05-10T00:30:03.951Z,0.00
2023-05-10T00:31:04.206Z,0.00
2023-05-10T00:32:04.523Z,0.00
2023-05-10T00:33:04.805Z,0.00
2023-05-10T00:34:05.057Z,0.00
2023-05-10T00:35:05.373Z,0.00
2023-05-10T00:36:05.682Z,0.00
2023-05-10T00:37:05.976Z,0.00
2023-05-10T00:38:06.273Z,0.00
2023-05-10T00:39:06.600Z,0.00
2023-05-10T00:40:06.880Z,0.00
2023-05-10T00:41:07.197Z,0.00
2023-05-10T00:42:07.460Z,0.00
2023-05-10T00:43:07.758Z,0.00
2023-05-10T00:44:08.073Z,0.00
2023-05-10T00:45:08.317Z,0.00
2023-05-10T00:46:08.760Z,0.00
2023-05-10T00:47:08.872Z,0.00
2023-05-10T00:48:09.171Z,0.00
2023-05-10T00:49:09.524Z,0.00
2023-05-10T00:50:09.787Z,0.00
2023-05-10T00:51:10.088Z,0.00
2023-05-10T00:52:10.400Z,0.00
2023-05-10T00:53:10.634Z,0.00
2023-05-10T00:54:10.909Z,0.00
2023-05-10T00:55:11.187Z,0.00
2023-05-10T00:56:11.510Z,0.00
2023-05-10T00:57:11.817Z,0.00
2023-05-10T00:58:12.076Z,0.00
2023-05-10T00:59:12.388Z,0.00
2023-05-10T01:00:12.682Z,0.00
2023-05-10T01:01:12.970Z,0.00
2023-05-10T01:02:13.241Z,0.00
2023-05-10T01:03:13.529Z,0.00
2023-05-10T01:04:13.821Z,0.00
2023-05-10T01:05:14.060Z,0.00
2023-05-10T01:06:14.404Z,0.00
2023-05-10T01:07:14.682Z,0.00
2023-05-10T01:08:14.946Z,0.00
2023-05-10T01:09:15.258Z,0.00
2023-05-10T01:10:15.749Z,0.00
2023-05-10T01:11:15.977Z,0.00
2023-05-10T01:12:16.299Z,0.00
2023-05-10T01:13:16.543Z,0.00
2023-05-10T01:14:16.786Z,0.00
2023-05-10T01:15:17.100Z,0.00
2023-05-10T01:16:17.451Z,0.00
2023-05-10T01:17:17.695Z,0.00
2023-05-10T01:18:18.020Z,0.00
2023-05-10T01:19:18.307Z,0.00
2023-05-10T01:20:18.827Z,0.00
2023-05-10T01:21:18.905Z,0.00
2023-05-10T01:22:19.180Z,0.00
2023-05-10T01:23:19.512Z,0.00
2023-05-10T01:24:19.777Z,0.00
2023-05-10T01:25:20.049Z,0.00
2023-05-10T01:26:20.320Z,0.00
2023-05-10T01:27:20.589Z,0.00
2023-05-10T01:28:20.922Z,0.00
2023-05-10T01:29:21.212Z,0.00
2023-05-10T01:30:22.335Z,0.00
2023-05-10T01:31:21.769Z,0.00
2023-05-10T01:32:22.095Z,0.00
2023-05-10T01:33:22.419Z,0.00
2023-05-10T01:34:22.740Z,0.00
2023-05-10T01:35:23.006Z,0.00
2023-05-10T01:36:23.314Z,0.00
2023-05-10T01:37:23.610Z,0.00
2023-05-10T01:38:23.931Z,0.00
2023-05-10T01:39:24.193Z,0.00
2023-05-10T01:40:24.499Z,0.00
2023-05-10T01:41:24.856Z,0.00
2023-05-10T01:42:25.093Z,0.00
2023-05-10T01:43:25.429Z,0.00
2023-05-10T01:44:25.717Z,0.00
2023-05-10T01:45:26.043Z,0.00
2023-05-10T01:46:26.308Z,0.00
2023-05-10T01:47:26.589Z,0.00
2023-05-10T01:48:27.013Z,0.00
2023-05-10T01:49:27.163Z,0.00
2023-05-10T01:50:27.430Z,0.00
2023-05-10T01:51:27.733Z,0.00
2023-05-10T01:52:28.052Z,0.00
2023-05-10T01:53:28.360Z,0.00
2023-05-10T01:54:28.595Z,0.00
2023-05-10T01:55:28.955Z,0.00
2023-05-10T01:56:29.203Z,0.00
2023-05-10T01:57:29.445Z,0.00
2023-05-10T01:58:29.728Z,0.00
2023-05-10T01:59:30.027Z,0.00
2023-05-10T02:00:30.372Z,0.00
2023-05-10T02:01:30.620Z,0.00
2023-05-10T02:02:30.912Z,0.00
2023-05-10T02:03:31.171Z,0.00
2023-05-10T02:04:31.440Z,0.00
2023-05-10T02:05:31.785Z,0.00
2023-05-10T02:06:32.040Z,0.00
2023-05-10T02:07:32.372Z,0.00
2023-05-10T02:08:32.632Z,0.00
2023-05-10T02:09:32.935Z,0.00
2023-05-10T02:10:33.255Z,0.00
2023-05-10T02:11:33.526Z,0.00
2023-05-10T02:12:33.851Z,0.00
2023-05-10T02:13:34.142Z,0.00
2023-05-10T02:14:34.466Z,0.00
2023-05-10T02:15:34.740Z,0.00
2023-05-10T02:16:35.083Z,0.00
2023-05-10T02:17:35.331Z,0.00
2023-05-10T02:18:35.622Z,0.00
2023-05-10T02:19:35.928Z,0.00
2023-05-10T02:20:36.212Z,0.00
2023-05-10T02:21:36.464Z,0.00
2023-05-10T02:22:36.744Z,0.00
2023-05-10T02:23:37.038Z,0.00
2023-05-10T02:24:37.365Z,0.00
2023-05-10T02:25:37.647Z,0.00
2023-05-10T02:26:37.945Z,0.00
2023-05-10T02:27:38.235Z,0.00
2023-05-10T02:28:38.474Z,0.00
2023-05-10T02:29:38.804Z,0.00
2023-05-10T02:30:39.069Z,0.00
2023-05-10T02:31:39.381Z,0.00
2023-05-10T02:32:39.641Z,0.00
2023-05-10T02:33:39.930Z,0.00
2023-05-10T02:34:40.247Z,0.00
2023-05-10T02:35:40.516Z,0.00
2023-05-10T02:36:40.791Z,0.00
2023-05-10T02:37:41.102Z,0.00
2023-05-10T02:38:41.374Z,0.00
2023-05-10T02:39:41.715Z,0.00
2023-05-10T02:40:41.991Z,0.00
2023-05-10T02:41:42.292Z,0.00
2023-05-10T02:42:42.573Z,0.00
2023-05-10T02:43:42.877Z,0.00
2023-05-10T02:44:43.154Z,0.00
2023-05-10T02:45:43.549Z,0.00
2023-05-10T02:46:43.740Z,0.00
2023-05-10T02:47:44.054Z,0.00
2023-05-10T02:48:44.293Z,0.00
2023-05-10T02:49:44.578Z,0.00
2023-05-10T02:50:44.917Z,0.00
2023-05-10T02:51:45.145Z,0.00
2023-05-10T02:52:45.477Z,0.00
2023-05-10T02:53:45.745Z,0.00
2023-05-10T02:54:46.000Z,0.00
2023-05-10T02:55:46.334Z,0.00
2023-05-10T02:56:46.603Z,0.00
2023-05-10T02:57:46.836Z,0.00
2023-05-10T02:58:47.139Z,0.00
2023-05-10T02:59:47.453Z,0.00
2023-05-10T03:00:47.740Z,0.00
2023-05-10T03:01:48.178Z,0.00
2023-05-10T03:02:48.382Z,0.00
2023-05-10T03:03:48.577Z,0.00
2023-05-10T03:04:48.904Z,0.00
2023-05-10T03:05:49.204Z,0.00
2023-05-10T03:06:49.490Z,0.00
2023-05-10T03:07:49.789Z,0.00
2023-05-10T03:08:50.103Z,0.00
2023-05-10T03:09:50.374Z,0.00
2023-05-10T03:10:50.722Z,0.00
2023-05-10T03:11:51.005Z,0.00
2023-05-10T03:12:51.265Z,0.00
2023-05-10T03:13:51.590Z,0.00
2023-05-10T03:14:51.872Z,0.00
2023-05-10T03:15:52.254Z,0.00
2023-05-10T03:16:52.511Z,0.00
2023-05-10T03:17:52.888Z,0.00
2023-05-10T03:18:53.166Z,0.00
2023-05-10T03:19:53.477Z,0.00
2023-05-10T03:20:53.803Z,0.00
2023-05-10T03:21:54.162Z,0.00
2023-05-10T03:22:54.409Z,0.00
2023-05-10T03:23:54.766Z,0.00
2023-05-10T03:24:55.029Z,0.00
2023-05-10T03:25:55.385Z,0.00
2023-05-10T03:26:55.704Z,0.00
2023-05-10T03:27:55.980Z,4.00
2023-05-10T03:28:56.304Z,4.00
2023-05-10T03:29:56.584Z,4.00
2023-05-10T03:30:56.979Z,4.00
2023-05-10T03:31:57.231Z,4.00
2023-05-10T03:32:57.627Z,4.00
2023-05-10T03:33:57.767Z,4.00
2023-05-10T03:34:58.116Z,4.00
2023-05-10T03:35:58.505Z,4.00
2023-05-10T03:36:58.749Z,4.00
2023-05-10T03:37:59.083Z,4.00
2023-05-10T03:38:59.416Z,4.00
2023-05-10T03:39:59.698Z,4.00
2023-05-10T03:41:00.056Z,8.00
2023-05-10T03:42:00.348Z,8.00
2023-05-10T03:43:00.701Z,8.00
2023-05-10T03:44:01.009Z,8.00
2023-05-10T03:45:01.364Z,12.00
2023-05-10T03:46:01.627Z,12.00
2023-05-10T03:47:01.916Z,12.00
2023-05-10T03:48:02.152Z,16.00
2023-05-10T03:49:02.352Z,16.00
2023-05-10T03:50:02.578Z,16.00
2023-05-10T03:51:02.889Z,16.00
2023-05-10T03:52:03.138Z,16.00
2023-05-10T03:53:03.338Z,16.00
2023-05-10T03:54:03.577Z,16.00
2023-05-10T03:55:03.815Z,20.00
2023-05-10T03:56:04.180Z,24.00
2023-05-10T03:57:04.383Z,24.00
2023-05-10T03:58:04.578Z,28.00
2023-05-10T03:59:05.001Z,44.00
2023-05-10T04:00:05.158Z,48.00
2023-05-10T04:01:05.486Z,44.00
2023-05-10T04:02:05.884Z,48.00
2023-05-10T04:03:06.201Z,56.00
2023-05-10T04:04:06.571Z,56.00
2023-05-10T04:05:06.770Z,56.00
2023-05-10T04:06:07.140Z,48.00
2023-05-10T04:07:07.282Z,48.00
2023-05-10T04:08:07.628Z,48.00
2023-05-10T04:09:07.945Z,48.00
2023-05-10T04:10:08.374Z,44.00
2023-05-10T04:11:08.604Z,44.00
2023-05-10T04:12:10.835Z,40.00
2023-05-10T04:13:09.272Z,44.00
2023-05-10T04:14:09.546Z,52.00
2023-05-10T04:15:09.876Z,48.00
2023-05-10T04:16:10.229Z,56.00
2023-05-10T04:17:10.553Z,60.00
2023-05-10T04:18:10.840Z,64.00
2023-05-10T04:19:11.209Z,80.00
2023-05-10T04:20:11.531Z,92.00
2023-05-10T04:21:11.885Z,104.00
2023-05-10T04:22:12.069Z,128.00
2023-05-10T04:23:12.297Z,148.00
2023-05-10T04:24:13.581Z,188.00
2023-05-10T04:25:12.942Z,204.00
2023-05-10T04:26:13.272Z,240.00
2023-05-10T04:27:13.599Z,288.00
2023-05-10T04:28:13.955Z,336.00
2023-05-10T04:29:14.225Z,360.00
2023-05-10T04:30:14.592Z,416.00
2023-05-10T04:31:14.731Z,448.00
2023-05-10T04:32:14.918Z,476.00
2023-05-10T04:33:15.260Z,472.00
2023-05-10T04:34:15.509Z,496.00
2023-05-10T04:35:15.780Z,512.00
2023-05-10T04:36:16.097Z,500.00
2023-05-10T04:37:16.337Z,512.00
2023-05-10T04:38:16.585Z,508.00
2023-05-10T04:39:16.828Z,500.00
2023-05-10T04:40:17.264Z,500.00
2023-05-10T04:41:17.365Z,492.00
2023-05-10T04:42:17.559Z,488.00
2023-05-10T04:43:17.875Z,484.00
2023-05-10T04:44:18.086Z,472.00
2023-05-10T04:45:18.456Z,440.00
2023-05-10T04:46:18.751Z,424.00
2023-05-10T04:47:19.110Z,404.00
2023-05-10T04:48:19.356Z,404.00
2023-05-10T04:49:19.660Z,424.00
2023-05-10T04:50:20.021Z,448.00
2023-05-10T04:51:20.388Z,456.00
2023-05-10T04:52:20.607Z,456.00
2023-05-10T04:53:20.826Z,452.00
2023-05-10T04:54:21.249Z,444.00
2023-05-10T04:55:21.483Z,464.00
2023-05-10T04:56:21.760Z,524.00
2023-05-10T04:57:22.038Z,584.00
2023-05-10T04:58:22.292Z,632.00
2023-05-10T04:59:22.467Z,648.00
2023-05-10T05:00:22.791Z,684.00
2023-05-10T05:01:23.066Z,748.00
2023-05-10T05:02:23.341Z,800.00
2023-05-10T05:03:23.591Z,776.00
2023-05-10T05:04:23.882Z,820.00
2023-05-10T05:05:24.085Z,856.00
2023-05-10T05:06:24.411Z,832.00
2023-05-10T05:07:24.928Z,740.00
2023-05-10T05:08:25.100Z,696.00
2023-05-10T05:09:25.396Z,668.00
2023-05-10T05:10:25.850Z,712.00
2023-05-10T05:11:25.947Z,792.00
2023-05-10T05:12:26.030Z,856.00
2023-05-10T05:13:26.604Z,936.00
2023-05-10T05:14:26.572Z,1028.00
2023-05-10T05:15:26.966Z,1096.00
2023-05-10T05:16:27.606Z,1128.00
2023-05-10T05:17:27.650Z,1136.00
2023-05-10T05:18:27.712Z,1140.00
2023-05-10T05:19:27.972Z,1140.00
2023-05-10T05:20:28.379Z,1176.00
2023-05-10T05:21:28.480Z,1244.00
2023-05-10T05:22:28.888Z,1268.00
2023-05-10T05:23:28.971Z,1264.00
2023-05-10T05:24:29.349Z,1292.00
2023-05-10T05:25:29.914Z,1340.00
2023-05-10T05:26:30.032Z,1360.00
2023-05-10T05:27:30.091Z,1344.00
2023-05-10T05:28:30.459Z,1360.00
2023-05-10T05:29:30.668Z,1316.00
2023-05-10T05:30:30.948Z,1324.00
2023-05-10T05:31:31.224Z,1352.00
2023-05-10T05:32:31.447Z,1292.00
2023-05-10T05:33:31.689Z,1260.00
2023-05-10T05:34:31.941Z,1184.00
2023-05-10T05:35:32.321Z,1120.00
2023-05-10T05:36:32.636Z,1136.00
2023-05-10T05:37:32.878Z,1224.00
2023-05-10T05:38:33.107Z,1280.00
2023-05-10T05:39:33.381Z,1340.00
2023-05-10T05:40:33.866Z,1352.00
2023-05-10T05:41:34.102Z,1312.00
2023-05-10T05:42:34.164Z,1244.00
2023-05-10T05:43:36.680Z,1208.00
2023-05-10T05:44:34.766Z,1220.00
2023-05-10T05:45:35.020Z,1272.00
2023-05-10T05:46:35.365Z,1296.00
2023-05-10T05:47:35.670Z,1348.00
2023-05-10T05:48:35.837Z,1372.00
2023-05-10T05:49:36.205Z,1368.00
2023-05-10T05:50:36.403Z,1396.00
2023-05-10T05:51:36.848Z,1356.00
2023-05-10T05:52:37.025Z,1352.00
2023-05-10T05:53:37.290Z,1352.00
2023-05-10T05:54:37.537Z,1392.00
2023-05-10T05:55:37.827Z,1424.00
2023-05-10T05:56:38.085Z,1472.00
2023-05-10T05:57:38.301Z,1576.00
2023-05-10T05:58:38.652Z,1616.00
2023-05-10T05:59:38.865Z,1596.00
2023-05-10T06:00:39.125Z,1604.00
2023-05-10T06:01:39.502Z,1668.00
2023-05-10T06:02:39.805Z,1756.00
2023-05-10T06:03:40.040Z,1856.00
2023-05-10T06:04:41.593Z,2060.00
2023-05-10T06:05:40.585Z,2240.00
2023-05-10T06:06:40.782Z,2356.00
2023-05-10T06:07:41.054Z,2392.00
2023-05-10T06:08:41.366Z,2428.00
2023-05-10T06:09:41.615Z,2436.00
2023-05-10T06:10:41.869Z,2348.00
2023-05-10T06:11:42.102Z,2176.00
2023-05-10T06:12:42.365Z,2156.00
2023-05-10T06:13:42.615Z,2080.00
2023-05-10T06:14:42.896Z,2048.00
2023-05-10T06:15:43.093Z,2124.00
2023-05-10T06:16:43.393Z,2036.00
2023-05-10T06:17:43.682Z,2056.00
2023-05-10T06:18:43.904Z,2136.00
2023-05-10T06:19:44.166Z,2136.00
2023-05-10T06:20:44.393Z,2320.00
2023-05-10T06:21:44.622Z,2376.00
2023-05-10T06:22:44.833Z,2296.00
2023-05-10T06:23:45.289Z,2172.00
2023-05-10T06:24:45.491Z,2112.00
2023-05-10T06:25:45.760Z,2128.00
2023-05-10T06:26:46.046Z,1972.00
2023-05-10T06:27:49.853Z,1832.00
2023-05-10T06:28:47.609Z,1768.00
2023-05-10T06:29:46.959Z,1600.00
2023-05-10T06:30:47.230Z,1584.00
2023-05-10T06:31:47.549Z,1692.00
2023-05-10T06:32:47.755Z,1664.00
2023-05-10T06:33:48.002Z,1604.00
2023-05-10T06:34:48.287Z,1488.00
2023-05-10T06:35:48.485Z,1340.00
2023-05-10T06:36:48.748Z,1264.00
2023-05-10T06:37:48.999Z,1232.00
2023-05-10T06:38:49.260Z,1168.00
2023-05-10T06:39:49.555Z,1064.00
2023-05-10T06:40:49.775Z,1080.00
2023-05-10T06:41:50.012Z,1124.00
2023-05-10T06:42:50.235Z,1176.00
2023-05-10T06:43:50.516Z,1212.00
2023-05-10T06:44:50.739Z,1420.00
2023-05-10T06:45:51.008Z,1500.00
2023-05-10T06:46:51.329Z,1448.00
2023-05-10T06:47:51.562Z,1440.00
2023-05-10T06:48:51.799Z,1400.00
2023-05-10T06:49:52.038Z,1492.00
2023-05-10T06:50:52.263Z,1476.00
2023-05-10T06:51:52.586Z,1424.00
2023-05-10T06:52:53.239Z,1640.00
2023-05-10T06:53:53.146Z,1600.00
2023-05-10T06:54:53.433Z,1444.00
2023-05-10T06:55:53.756Z,1392.00
2023-05-10T06:56:54.096Z,1452.00
2023-05-10T06:57:54.397Z,1504.00
2023-05-10T06:58:54.627Z,1720.00
2023-05-10T06:59:54.872Z,1712.00
2023-05-10T07:00:55.176Z,1728.00
2023-05-10T07:01:55.474Z,1752.00
2023-05-10T07:02:55.713Z,1712.00
2023-05-10T07:03:55.926Z,1736.00
2023-05-10T07:04:56.391Z,1832.00
2023-05-10T07:05:56.631Z,1972.00
2023-05-10T07:06:56.855Z,2088.00
2023-05-10T07:07:57.094Z,2244.00
2023-05-10T07:08:57.348Z,2276.00
2023-05-10T07:09:57.610Z,2316.00
2023-05-10T07:10:57.772Z,2288.00
2023-05-10T07:11:58.155Z,2272.00
2023-05-10T07:12:58.565Z,2344.00
2023-05-10T07:13:58.643Z,2548.00
2023-05-10T07:14:58.887Z,2808.00
2023-05-10T07:15:59.162Z,2732.00
2023-05-10T07:16:59.457Z,2520.00
2023-05-10T07:17:59.824Z,2148.00
2023-05-10T07:18:59.903Z,1936.00
2023-05-10T07:20:00.211Z,1792.00
2023-05-10T07:21:00.494Z,1772.00
2023-05-10T07:22:00.713Z,1768.00
2023-05-10T07:23:00.976Z,1616.00
2023-05-10T07:24:01.268Z,1440.00
2023-05-10T07:25:01.480Z,1476.00
2023-05-10T07:26:01.702Z,1584.00
2023-05-10T07:27:01.927Z,1472.00
2023-05-10T07:28:02.200Z,1304.00
2023-05-10T07:29:02.409Z,1140.00
2023-05-10T07:30:02.729Z,1056.00
2023-05-10T07:31:02.986Z,988.00
2023-05-10T07:32:03.244Z,1024.00
2023-05-10T07:33:03.511Z,1060.00
2023-05-10T07:34:03.752Z,988.00
2023-05-10T07:35:04.006Z,1120.00
2023-05-10T07:36:04.259Z,1228.00
2023-05-10T07:37:04.496Z,1144.00
2023-05-10T07:38:04.805Z,1168.00
2023-05-10T07:39:05.037Z,1332.00
2023-05-10T07:40:05.263Z,1608.00
2023-05-10T07:41:05.559Z,1888.00
2023-05-10T07:42:05.785Z,2240.00
2023-05-10T07:43:06.043Z,2404.00
2023-05-10T07:44:06.258Z,2312.00
2023-05-10T07:45:06.555Z,2320.00
2023-05-10T07:46:06.851Z,2576.00
2023-05-10T07:47:07.026Z,2868.00
2023-05-10T07:48:07.305Z,2840.00
2023-05-10T07:49:07.577Z,2924.00
2023-05-10T07:50:07.840Z,3208.00
2023-05-10T07:51:08.106Z,3356.00
2023-05-10T07:52:08.449Z,3620.00
2023-05-10T07:53:08.672Z,3936.00
2023-05-10T07:54:09.013Z,4188.00
2023-05-10T07:55:09.236Z,4624.00
2023-05-10T07:56:09.483Z,4512.00
2023-05-10T07:57:09.741Z,4388.00
2023-05-10T07:58:10.072Z,4100.00
2023-05-10T07:59:12.579Z,4048.00
2023-05-10T08:00:10.602Z,4076.00
2023-05-10T08:01:10.838Z,3944.00
2023-05-10T08:02:11.071Z,3872.00
2023-05-10T08:03:11.497Z,3840.00
2023-05-10T08:04:11.689Z,3884.00
2023-05-10T08:05:12.016Z,4004.00
2023-05-10T08:06:12.123Z,4332.00
2023-05-10T08:07:12.349Z,4376.00
2023-05-10T08:08:12.586Z,4260.00
2023-05-10T08:09:12.870Z,4156.00
2023-05-10T08:10:13.098Z,4208.00
2023-05-10T08:11:13.385Z,4512.00
2023-05-10T08:12:13.637Z,4936.00
2023-05-10T08:13:13.866Z,5156.00
2023-05-10T08:14:14.093Z,5220.00
2023-05-10T08:15:14.520Z,5172.00
2023-05-10T08:16:14.656Z,5196.00
2023-05-10T08:17:14.942Z,5412.00
2023-05-10T08:18:15.269Z,5404.00
2023-05-10T08:19:15.407Z,5420.00
2023-05-10T08:20:15.657Z,6056.00
2023-05-10T08:21:15.976Z,6048.00
2023-05-10T08:22:16.181Z,5720.00
2023-05-10T08:23:16.451Z,6028.00
2023-05-10T08:24:16.703Z,5328.00
2023-05-10T08:25:17.170Z,4524.00
2023-05-10T08:26:17.229Z,3792.00
2023-05-10T08:27:17.559Z,3484.00
2023-05-10T08:28:17.891Z,3420.00
2023-05-10T08:29:18.207Z,4224.00
2023-05-10T08:30:18.600Z,5756.00
2023-05-10T08:31:18.902Z,7364.00
2023-05-10T08:32:19.217Z,8256.00
2023-05-10T08:33:19.591Z,8748.00
2023-05-10T08:34:19.898Z,8380.00
2023-05-10T08:35:20.124Z,8436.00
2023-05-10T08:36:20.512Z,8596.00
2023-05-10T08:37:20.798Z,8848.00
2023-05-10T08:38:21.107Z,9512.00
2023-05-10T08:39:29.774Z,9860.00
2023-05-10T08:40:22.815Z,10740.00
2023-05-10T08:41:22.090Z,13304.00
2023-05-10T08:42:22.278Z,14448.00
2023-05-10T08:43:22.707Z,11984.00
2023-05-10T08:44:22.870Z,13072.00
2023-05-10T08:45:23.157Z,14272.00
2023-05-10T08:46:23.368Z,15904.00
2023-05-10T08:47:23.586Z,15552.00
2023-05-10T08:48:23.936Z,13572.00
2023-05-10T08:49:24.174Z,11928.00
2023-05-10T08:50:24.412Z,9956.00
2023-05-10T08:51:24.563Z,8232.00
2023-05-10T08:52:24.959Z,6236.00
2023-05-10T08:53:25.125Z,5372.00
2023-05-10T08:54:25.519Z,5020.00
2023-05-10T08:55:25.854Z,4536.00
2023-05-10T08:56:26.175Z,4900.00
2023-05-10T08:57:26.373Z,5412.00
2023-05-10T08:58:26.749Z,6092.00
2023-05-10T08:59:26.982Z,7304.00
2023-05-10T09:00:27.163Z,7476.00
2023-05-10T09:01:27.531Z,7320.00
2023-05-10T09:02:27.757Z,7388.00
2023-05-10T09:03:28.118Z,7112.00
2023-05-10T09:04:28.520Z,6456.00
2023-05-10T09:05:28.815Z,6024.00
2023-05-10T09:06:28.996Z,6572.00
2023-05-10T09:07:29.351Z,6616.00
2023-05-10T09:08:29.550Z,6424.00
2023-05-10T09:09:29.814Z,6220.00
2023-05-10T09:10:30.097Z,6248.00
2023-05-10T09:11:30.455Z,6512.00
2023-05-10T09:12:30.769Z,6364.00
2023-05-10T09:13:31.094Z,6660.00
2023-05-10T09:14:31.408Z,6588.00
2023-05-10T09:15:31.769Z,6956.00
2023-05-10T09:16:31.905Z,7560.00
2023-05-10T09:17:32.246Z,7592.00
2023-05-10T09:18:32.607Z,6572.00
2023-05-10T09:19:32.922Z,6064.00
2023-05-10T09:20:33.266Z,5588.00
2023-05-10T09:21:33.583Z,4876.00
2023-05-10T09:22:33.868Z,4528.00
2023-05-10T09:23:34.239Z,4208.00
2023-05-10T09:24:34.527Z,3780.00
2023-05-10T09:25:34.963Z,3556.00
2023-05-10T09:26:35.177Z,3396.00
2023-05-10T09:27:35.511Z,3236.00
2023-05-10T09:28:35.855Z,3284.00
2023-05-10T09:29:36.179Z,3240.00
2023-05-10T09:30:36.422Z,3352.00
2023-05-10T09:31:36.640Z,3500.00
2023-05-10T09:32:36.933Z,3612.00
2023-05-10T09:33:37.033Z,4024.00
2023-05-10T09:34:37.407Z,4492.00
2023-05-10T09:35:37.658Z,4912.00
2023-05-10T09:36:38.017Z,5224.00
2023-05-10T09:37:38.312Z,5608.00
2023-05-10T09:38:38.612Z,6040.00
2023-05-10T09:39:38.837Z,6608.00
2023-05-10T09:40:39.214Z,7236.00
2023-05-10T09:41:39.503Z,7400.00
2023-05-10T09:42:39.876Z,7468.00
2023-05-10T09:43:40.181Z,6448.00
2023-05-10T09:44:40.590Z,8252.00
2023-05-10T09:45:40.740Z,7676.00
2023-05-10T09:46:41.097Z,8164.00
2023-05-10T09:47:41.472Z,8312.00
2023-05-10T09:48:41.676Z,8364.00
2023-05-10T09:49:41.988Z,8212.00
2023-05-10T09:50:42.316Z,6924.00
2023-05-10T09:51:42.690Z,6708.00
2023-05-10T09:52:42.921Z,6368.00
2023-05-10T09:53:43.068Z,5888.00
2023-05-10T09:54:43.435Z,6292.00
2023-05-10T09:55:43.733Z,7240.00
2023-05-10T09:56:44.049Z,7596.00
2023-05-10T09:57:44.391Z,7408.00
2023-05-10T09:58:44.738Z,7208.00
2023-05-10T09:59:45.047Z,7288.00
2023-05-10T10:00:45.404Z,7240.00
2023-05-10T10:01:45.702Z,7616.00
2023-05-10T10:02:46.029Z,7892.00
2023-05-10T10:03:46.169Z,7572.00
2023-05-10T10:04:46.730Z,7096.00
2023-05-10T10:05:46.725Z,7160.00
2023-05-10T10:06:47.000Z,8104.00
2023-05-10T10:07:47.166Z,8120.00
2023-05-10T10:08:47.764Z,7928.00
2023-05-10T10:09:47.789Z,7256.00
2023-05-10T10:10:48.113Z,6624.00
2023-05-10T10:11:48.430Z,6280.00
2023-05-10T10:12:48.571Z,6128.00
2023-05-10T10:13:48.763Z,6112.00
2023-05-10T10:14:49.038Z,6148.00
2023-05-10T10:15:49.383Z,6296.00
2023-05-10T10:17:05.555Z,6504.00
2023-05-10T10:17:50.939Z,6724.00
2023-05-10T10:18:50.245Z,6808.00
2023-05-10T10:19:50.452Z,6992.00
2023-05-10T10:20:50.663Z,7268.00
2023-05-10T10:21:51.084Z,7728.00
2023-05-10T10:22:51.144Z,7860.00
2023-05-10T10:23:51.388Z,7876.00
2023-05-10T10:24:51.666Z,8048.00
2023-05-10T10:25:51.953Z,8320.00
2023-05-10T10:26:52.165Z,8512.00
2023-05-10T10:27:52.428Z,8780.00
2023-05-10T10:28:52.699Z,8572.00
2023-05-10T10:29:52.887Z,8288.00
2023-05-10T10:30:53.136Z,7956.00
2023-05-10T10:31:53.496Z,7472.00
2023-05-10T10:32:53.624Z,6972.00
2023-05-10T10:33:53.972Z,6240.00
2023-05-10T10:34:54.212Z,5976.00
2023-05-10T10:35:54.457Z,5420.00
2023-05-10T10:36:54.764Z,5168.00
2023-05-10T10:37:55.006Z,4780.00
2023-05-10T10:38:55.219Z,4712.00
2023-05-10T10:39:55.544Z,4244.00
2023-05-10T10:40:55.792Z,4124.00
2023-05-10T10:41:55.999Z,4192.00
2023-05-10T10:42:56.252Z,4940.00
2023-05-10T10:43:56.508Z,5548.00
2023-05-10T10:44:56.829Z,5836.00
2023-05-10T10:45:57.124Z,6020.00
2023-05-10T10:46:57.340Z,6340.00
2023-05-10T10:47:57.801Z,6760.00
2023-05-10T10:48:57.995Z,7412.00
2023-05-10T10:49:58.222Z,7780.00
2023-05-10T10:50:58.445Z,8520.00
2023-05-10T10:51:58.779Z,9116.00
2023-05-10T10:52:59.089Z,9524.00
2023-05-10T10:53:59.410Z,9716.00
2023-05-10T10:54:59.758Z,9748.00
2023-05-10T10:56:00.048Z,9880.00
2023-05-10T10:57:00.385Z,9524.00
2023-05-10T10:58:00.741Z,9616.00
2023-05-10T10:59:01.110Z,9576.00
2023-05-10T11:00:01.306Z,9804.00
2023-05-10T11:01:01.569Z,10180.00
2023-05-10T11:02:01.843Z,10160.00
2023-05-10T11:03:02.221Z,9656.00
2023-05-10T11:04:02.502Z,7840.00
2023-05-10T11:05:02.800Z,7812.00
2023-05-10T11:06:03.164Z,8172.00
2023-05-10T11:07:03.463Z,8524.00
2023-05-10T11:08:03.751Z,8164.00
2023-05-10T11:09:03.995Z,8788.00
2023-05-10T11:10:04.161Z,8748.00
2023-05-10T11:11:04.619Z,7760.00
2023-05-10T11:12:04.823Z,7868.00
2023-05-10T11:13:05.116Z,8900.00
2023-05-10T11:14:05.338Z,8892.00
2023-05-10T11:15:05.693Z,8260.00
2023-05-10T11:16:06.043Z,7976.00
2023-05-10T11:17:06.376Z,8488.00
2023-05-10T11:18:06.602Z,9148.00
2023-05-10T11:19:06.998Z,9768.00
2023-05-10T11:20:07.197Z,10420.00
2023-05-10T11:21:07.396Z,10836.00
2023-05-10T11:22:07.619Z,10172.00
2023-05-10T11:23:07.955Z,10040.00
2023-05-10T11:24:08.224Z,10000.00
2023-05-10T11:25:08.437Z,10056.00
2023-05-10T11:26:08.825Z,9940.00
2023-05-10T11:27:09.187Z,9724.00
2023-05-10T11:28:09.383Z,9568.00
2023-05-10T11:29:09.770Z,9464.00
2023-05-10T11:30:10.072Z,9720.00
2023-05-10T11:31:10.417Z,9760.00
2023-05-10T11:32:10.723Z,9788.00
2023-05-10T11:33:11.041Z,9840.00
2023-05-10T11:34:11.342Z,9928.00
2023-05-10T11:35:11.729Z,10364.00
2023-05-10T11:36:11.915Z,10720.00
2023-05-10T11:37:12.281Z,10588.00
2023-05-10T11:38:12.682Z,10820.00
2023-05-10T11:39:12.927Z,10428.00
2023-05-10T11:40:13.240Z,10112.00
2023-05-10T11:41:13.608Z,9928.00
2023-05-10T11:42:13.949Z,9336.00
2023-05-10T11:43:14.261Z,8932.00
2023-05-10T11:44:14.456Z,8504.00
2023-05-10T11:45:14.802Z,8064.00
2023-05-10T11:46:15.078Z,7844.00
2023-05-10T11:47:15.389Z,7704.00
2023-05-10T11:48:15.828Z,8032.00
2023-05-10T11:49:15.997Z,7736.00
2023-05-10T11:50:16.376Z,7344.00
2023-05-10T11:51:16.575Z,7220.00
2023-05-10T11:52:16.943Z,7148.00
2023-05-10T11:53:17.300Z,7044.00
2023-05-10T11:54:17.607Z,6920.00
2023-05-10T11:55:17.938Z,7040.00
2023-05-10T11:56:18.299Z,6996.00
2023-05-10T11:57:18.633Z,6844.00
2023-05-10T11:58:18.917Z,6736.00
2023-05-10T11:59:19.263Z,6680.00
2023-05-10T12:00:20.046Z,6748.00
2023-05-10T12:01:19.913Z,6760.00
2023-05-10T12:02:20.229Z,6944.00
2023-05-10T12:03:20.648Z,7152.00
2023-05-10T12:04:20.984Z,7496.00
2023-05-10T12:05:21.067Z,7460.00
2023-05-10T12:06:21.398Z,7788.00
2023-05-10T12:07:21.827Z,8072.00
2023-05-10T12:08:22.000Z,8320.00
2023-05-10T12:09:35.487Z,8388.00
2023-05-10T12:10:23.617Z,8324.00
2023-05-10T12:11:23.019Z,8436.00
2023-05-10T12:12:23.327Z,8280.00
2023-05-10T12:13:23.656Z,7804.00
2023-05-10T12:14:24.022Z,7744.00
2023-05-10T12:15:24.330Z,7808.00
2023-05-10T12:16:24.708Z,7884.00
2023-05-10T12:17:24.908Z,7940.00
2023-05-10T12:18:25.241Z,7932.00
2023-05-10T12:19:25.563Z,7952.00
2023-05-10T12:20:25.925Z,8064.00
2023-05-10T12:21:26.266Z,8132.00
2023-05-10T12:22:26.569Z,7800.00
2023-05-10T12:23:26.855Z,7508.00
2023-05-10T12:24:27.198Z,7580.00
2023-05-10T12:25:27.412Z,7784.00
2023-05-10T12:26:27.767Z,8140.00
2023-05-10T12:27:28.109Z,8848.00
2023-05-10T12:28:28.425Z,8708.00
2023-05-10T12:29:28.725Z,8520.00
2023-05-10T12:30:29.096Z,8392.00
2023-05-10T12:31:29.549Z,8488.00
2023-05-10T12:32:29.759Z,8516.00
2023-05-10T12:33:29.949Z,8640.00